createdAt,value
2019-05-20T00:01:44.984Z,13.30
2019-05-20T00:04:13.869Z,13.30
2019-05-20T00:06:43.141Z,13.30
2019-05-20T00:09:11.913Z,13.30
2019-05-20T00:11:40.728Z,13.30
2019-05-20T00:14:09.499Z,13.30
2019-05-20T00:16:38.476Z,13.30
2019-05-20T00:19:07.360Z,13.30
2019-05-20T00:21:36.204Z,13.30
2019-05-20T00:24:04.988Z,13.30
2019-05-20T00:26:34.009Z,13.30
2019-05-20T00:29:02.876Z,13.30
2019-05-20T00:31:31.775Z,13.30
2019-05-20T00:34:00.582Z,13.30
2019-05-20T00:36:29.651Z,13.30
2019-05-20T00:39:16.393Z,13.30
2019-05-20T00:41:45.277Z,13.30
2019-05-20T00:44:14.035Z,13.40
2019-05-20T00:46:42.930Z,13.40
2019-05-20T00:49:11.711Z,13.40
2019-05-20T00:51:41.352Z,13.40
2019-05-20T00:54:10.523Z,13.40
2019-05-20T00:56:39.598Z,13.40
2019-05-20T00:59:08.516Z,13.40
2019-05-20T01:01:37.368Z,13.40
2019-05-20T01:04:06.279Z,13.50
2019-05-20T01:06:35.272Z,13.50
2019-05-20T01:09:06.619Z,13.40
2019-05-20T01:11:35.440Z,13.40
2019-05-20T01:14:04.826Z,13.40
2019-05-20T01:16:33.975Z,13.40
2019-05-20T01:19:03.418Z,13.40
2019-05-20T01:21:32.231Z,13.40
2019-05-20T01:24:01.070Z,13.40
2019-05-20T01:26:29.875Z,13.40
2019-05-20T01:28:58.676Z,13.40
2019-05-20T01:31:27.469Z,13.40
2019-05-20T01:33:56.254Z,13.40
2019-05-20T01:36:25.239Z,13.40
2019-05-20T01:38:54.097Z,13.40
2019-05-20T01:41:22.923Z,13.50
2019-05-20T01:43:51.788Z,13.50
2019-05-20T01:46:20.813Z,13.50
2019-05-20T01:48:49.608Z,13.50
2019-05-20T01:51:18.410Z,13.50
2019-05-20T01:53:47.190Z,13.50
2019-05-20T01:56:16.150Z,13.60
2019-05-20T01:58:44.967Z,13.50
2019-05-20T02:01:13.833Z,13.50
2019-05-20T02:03:42.676Z,13.60
2019-05-20T02:06:11.487Z,13.50
2019-05-20T02:08:40.395Z,13.50
2019-05-20T02:11:09.197Z,13.50
2019-05-20T02:13:57.048Z,13.50
2019-05-20T02:16:26.770Z,13.50
2019-05-20T02:18:55.621Z,13.60
2019-05-20T02:21:24.432Z,13.60
2019-05-20T02:23:53.327Z,13.60
2019-05-20T02:26:22.498Z,13.50
2019-05-20T02:28:51.354Z,13.50
2019-05-20T02:31:20.216Z,13.50
2019-05-20T02:33:52.189Z,13.50
2019-05-20T02:36:19.704Z,13.40
2019-05-20T02:38:48.489Z,13.40
2019-05-20T02:41:17.347Z,13.30
2019-05-20T02:43:46.710Z,13.30
2019-05-20T02:46:15.646Z,13.30
2019-05-20T02:48:44.565Z,13.30
2019-05-20T02:51:14.067Z,13.30
2019-05-20T02:53:42.859Z,13.40
2019-05-20T02:56:11.823Z,13.40
2019-05-20T02:58:40.680Z,13.50
2019-05-20T03:01:09.488Z,13.40
2019-05-20T03:03:38.282Z,13.40
2019-05-20T03:06:07.245Z,13.40
2019-05-20T03:08:36.032Z,13.30
2019-05-20T03:11:04.905Z,13.40
2019-05-20T03:13:33.681Z,13.40
2019-05-20T03:16:02.567Z,13.40
2019-05-20T03:18:31.389Z,13.40
2019-05-20T03:21:00.239Z,13.50
2019-05-20T03:23:29.301Z,13.50
2019-05-20T03:25:58.384Z,13.50
2019-05-20T03:28:27.327Z,13.50
2019-05-20T03:30:56.125Z,13.50
2019-05-20T03:33:24.969Z,13.50
2019-05-20T03:35:53.978Z,13.50
2019-05-20T03:38:22.775Z,13.50
2019-05-20T03:40:53.107Z,13.50
2019-05-20T03:43:21.969Z,13.50
2019-05-20T03:45:50.869Z,13.50
2019-05-20T03:48:19.716Z,13.50
2019-05-20T03:50:48.527Z,13.60
2019-05-20T03:53:17.380Z,13.60
2019-05-20T03:55:46.223Z,13.60
2019-05-20T03:58:15.068Z,13.60
2019-05-20T04:00:45.691Z,13.60
2019-05-20T04:03:15.434Z,13.60
2019-05-20T04:05:44.725Z,13.60
2019-05-20T04:08:14.006Z,13.60
2019-05-20T04:10:43.112Z,13.60
2019-05-20T04:13:12.096Z,13.60
2019-05-20T04:15:41.402Z,13.60
2019-05-20T04:18:10.349Z,13.60
2019-05-20T04:20:39.166Z,13.60
2019-05-20T04:23:08.122Z,13.60
2019-05-20T04:25:37.023Z,13.60
2019-05-20T04:28:06.045Z,13.60
2019-05-20T04:30:34.908Z,13.60
2019-05-20T04:33:04.262Z,13.60
2019-05-20T04:35:33.075Z,13.60
2019-05-20T04:38:02.066Z,13.60
2019-05-20T04:40:30.872Z,13.60
2019-05-20T04:42:59.751Z,13.60
2019-05-20T04:45:28.541Z,13.60
2019-05-20T04:47:57.417Z,13.60
2019-05-20T04:50:26.202Z,13.60
2019-05-20T04:52:54.969Z,13.60
2019-05-20T04:55:23.847Z,13.60
2019-05-20T04:57:52.767Z,13.60
2019-05-20T05:00:50.762Z,13.60
2019-05-20T05:03:19.558Z,13.60
2019-05-20T05:05:49.335Z,13.60
2019-05-20T05:08:18.367Z,13.60
2019-05-20T05:10:47.350Z,13.60
2019-05-20T05:13:16.389Z,13.60
2019-05-20T05:15:45.726Z,13.60
2019-05-20T05:18:14.626Z,13.60
2019-05-20T05:20:43.568Z,13.50
2019-05-20T05:23:12.533Z,13.50
2019-05-20T05:25:41.368Z,13.60
2019-05-20T05:28:10.497Z,13.50
2019-05-20T05:30:40.355Z,13.50
2019-05-20T05:33:09.217Z,13.50
2019-05-20T05:35:52.340Z,13.60
2019-05-20T05:38:08.912Z,13.60
2019-05-20T05:40:37.717Z,13.60
2019-05-20T05:43:06.528Z,13.70
2019-05-20T05:45:36.158Z,13.70
2019-05-20T05:48:05.482Z,13.70
2019-05-20T05:50:34.312Z,13.70
2019-05-20T05:53:03.105Z,13.80
2019-05-20T05:55:32.069Z,13.80
2019-05-20T05:58:00.956Z,13.80
2019-05-20T06:00:29.853Z,13.80
2019-05-20T06:02:58.651Z,13.90
2019-05-20T06:05:31.328Z,13.90
2019-05-20T06:07:58.104Z,13.90
2019-05-20T06:10:26.928Z,14.00
2019-05-20T06:12:55.735Z,14.00
2019-05-20T06:15:24.899Z,14.00
2019-05-20T06:17:53.885Z,14.00
2019-05-20T06:20:23.749Z,14.10
2019-05-20T06:22:52.599Z,14.10
2019-05-20T06:25:21.869Z,14.10
2019-05-20T06:27:50.683Z,14.10
2019-05-20T06:30:22.733Z,14.10
2019-05-20T06:32:51.510Z,14.10
2019-05-20T06:35:20.298Z,14.10
2019-05-20T06:37:53.094Z,14.10
2019-05-20T06:40:21.927Z,14.10
2019-05-20T06:42:50.831Z,14.10
2019-05-20T06:45:19.786Z,14.10
2019-05-20T06:47:48.804Z,14.10
2019-05-20T06:50:17.754Z,14.10
2019-05-20T06:52:46.541Z,14.10
2019-05-20T06:55:15.919Z,14.10
2019-05-20T06:57:44.734Z,14.10
2019-05-20T07:00:15.659Z,14.10
2019-05-20T07:02:44.434Z,14.10
2019-05-20T07:05:13.552Z,14.10
2019-05-20T07:07:42.534Z,14.10
2019-05-20T07:10:11.587Z,14.10
2019-05-20T07:12:41.752Z,14.00
2019-05-20T07:15:11.168Z,14.10
2019-05-20T07:17:40.177Z,14.00
2019-05-20T07:20:09.311Z,14.00
2019-05-20T07:22:54.538Z,14.00
2019-05-20T07:25:09.153Z,13.90
2019-05-20T07:27:37.994Z,13.90
2019-05-20T07:30:07.315Z,13.90
2019-05-20T07:32:36.268Z,13.90
2019-05-20T07:35:07.852Z,13.80
2019-05-20T07:37:36.736Z,13.80
2019-05-20T07:40:06.212Z,13.80
2019-05-20T07:42:35.059Z,13.80
2019-05-20T07:45:04.421Z,13.80
2019-05-20T07:47:33.620Z,13.80
2019-05-20T07:50:03.067Z,13.80
2019-05-20T07:52:32.539Z,13.80
2019-05-20T07:55:02.184Z,13.90
2019-05-20T07:57:34.033Z,13.80
2019-05-20T08:00:04.426Z,13.80
2019-05-20T08:02:33.481Z,13.80
2019-05-20T08:05:04.605Z,13.80
2019-05-20T08:07:50.300Z,13.80
2019-05-20T08:10:03.721Z,13.80
2019-05-20T08:12:32.558Z,13.80
2019-05-20T08:15:01.461Z,13.80
2019-05-20T08:17:30.498Z,13.80
2019-05-20T08:19:59.337Z,13.80
2019-05-20T08:22:28.338Z,13.80
2019-05-20T08:24:57.248Z,13.80
2019-05-20T08:27:26.410Z,13.80
2019-05-20T08:29:55.199Z,13.80
2019-05-20T08:32:24.086Z,13.90
2019-05-20T08:34:52.917Z,13.80
2019-05-20T08:37:21.688Z,13.80
2019-05-20T08:39:50.539Z,13.90
2019-05-20T08:42:19.410Z,13.90
2019-05-20T08:44:48.249Z,13.90
2019-05-20T08:47:17.343Z,13.90
2019-05-20T08:49:46.473Z,13.90
2019-05-20T08:52:15.611Z,13.90
2019-05-20T08:54:44.424Z,13.80
2019-05-20T08:57:13.388Z,13.80
2019-05-20T08:59:42.195Z,13.90
2019-05-20T09:02:11.092Z,13.90
2019-05-20T09:04:39.913Z,13.90
2019-05-20T09:07:09.404Z,13.90
2019-05-20T09:09:38.266Z,13.90
2019-05-20T09:12:07.332Z,13.80
2019-05-20T09:14:36.112Z,13.80
2019-05-20T09:17:05.111Z,13.90
2019-05-20T09:19:33.847Z,13.80
2019-05-20T09:22:02.719Z,13.80
2019-05-20T09:24:31.564Z,13.80
2019-05-20T09:27:00.764Z,13.80
2019-05-20T09:29:29.556Z,13.80
2019-05-20T09:31:58.548Z,13.90
2019-05-20T09:34:27.449Z,13.80
2019-05-20T09:36:56.428Z,13.80
2019-05-20T09:39:25.331Z,13.80
2019-05-20T09:41:54.227Z,13.90
2019-05-20T09:44:23.073Z,13.90
2019-05-20T09:46:52.120Z,14.00
2019-05-20T09:49:20.958Z,14.00
2019-05-20T09:51:49.816Z,13.90
2019-05-20T09:54:18.667Z,13.90
2019-05-20T09:56:47.555Z,13.90
2019-05-20T09:59:16.565Z,13.90
2019-05-20T10:01:45.550Z,14.00
2019-05-20T10:04:15.927Z,14.10
2019-05-20T10:06:45.316Z,14.10
2019-05-20T10:09:14.128Z,14.20
2019-05-20T10:11:43.501Z,14.20
2019-05-20T10:14:12.474Z,14.30
2019-05-20T10:16:41.672Z,14.30
2019-05-20T10:19:10.583Z,14.30
2019-05-20T10:21:39.392Z,14.30
2019-05-20T10:24:08.186Z,14.30
2019-05-20T10:26:39.767Z,14.30
2019-05-20T10:29:08.796Z,14.20
2019-05-20T10:31:39.092Z,14.30
2019-05-20T10:34:07.963Z,14.40
2019-05-20T10:36:37.048Z,14.40
2019-05-20T10:39:08.858Z,14.50
2019-05-20T10:41:38.048Z,14.60
2019-05-20T10:44:07.252Z,14.60
2019-05-20T10:46:36.954Z,14.60
2019-05-20T10:49:05.732Z,14.70
2019-05-20T10:51:34.617Z,14.60
2019-05-20T10:54:03.415Z,14.70
2019-05-20T10:56:32.411Z,14.70
2019-05-20T10:59:01.214Z,14.60
2019-05-20T11:01:29.965Z,14.70
2019-05-20T11:03:58.871Z,14.70
2019-05-20T11:06:27.743Z,14.70
2019-05-20T11:08:56.557Z,14.70
2019-05-20T11:11:28.864Z,14.60
2019-05-20T11:13:58.209Z,14.60
2019-05-20T11:16:27.463Z,14.70
2019-05-20T11:18:56.706Z,14.80
2019-05-20T11:21:25.563Z,14.90
2019-05-20T11:23:54.383Z,15.00
2019-05-20T11:26:26.062Z,15.00
2019-05-20T11:28:54.850Z,15.10
2019-05-20T11:31:24.123Z,15.30
2019-05-20T11:33:52.925Z,15.30
2019-05-20T11:36:21.843Z,15.40
2019-05-20T11:38:50.692Z,15.40
2019-05-20T11:41:19.562Z,15.40
2019-05-20T11:43:48.362Z,15.40
2019-05-20T11:46:19.152Z,15.40
2019-05-20T11:48:48.854Z,15.30
2019-05-20T11:51:18.020Z,15.40
2019-05-20T11:53:46.908Z,15.40
2019-05-20T11:56:15.789Z,15.30
2019-05-20T11:58:44.583Z,15.20
2019-05-20T12:01:13.365Z,15.20
2019-05-20T12:03:42.277Z,15.20
2019-05-20T12:06:11.152Z,15.20
2019-05-20T12:08:40.235Z,15.30
2019-05-20T12:11:10.424Z,15.30
2019-05-20T12:13:40.706Z,15.20
2019-05-20T12:16:10.003Z,15.40
2019-05-20T12:18:39.057Z,15.40
2019-05-20T12:21:07.831Z,15.50
2019-05-20T12:23:36.641Z,15.50
2019-05-20T12:26:05.436Z,15.60
2019-05-20T12:28:34.276Z,15.50
2019-05-20T12:31:03.312Z,15.50
2019-05-20T12:33:32.093Z,15.60
2019-05-20T12:36:01.076Z,15.60
2019-05-20T12:38:29.885Z,15.60
2019-05-20T12:40:58.695Z,15.60
2019-05-20T12:43:27.485Z,15.70
2019-05-20T12:45:56.732Z,15.90
2019-05-20T12:48:25.701Z,16.00
2019-05-20T12:50:54.513Z,16.10
2019-05-20T12:53:23.286Z,16.20
2019-05-20T12:55:52.048Z,16.20
2019-05-20T12:58:20.835Z,16.20
2019-05-20T13:00:49.624Z,16.30
2019-05-20T13:03:18.680Z,16.40
2019-05-20T13:05:47.873Z,16.40
2019-05-20T13:08:17.515Z,16.30
2019-05-20T13:10:49.591Z,16.30
2019-05-20T13:13:18.396Z,16.30
2019-05-20T13:15:47.219Z,16.20
2019-05-20T13:18:16.024Z,16.10
2019-05-20T13:20:44.859Z,16.00
2019-05-20T13:23:20.175Z,16.00
2019-05-20T13:25:49.207Z,16.00
2019-05-20T13:28:19.016Z,16.10
2019-05-20T13:30:52.025Z,16.10
2019-05-20T13:33:24.023Z,16.20
2019-05-20T13:35:56.504Z,16.30
2019-05-20T13:38:25.421Z,16.20
2019-05-20T13:40:54.285Z,16.30
2019-05-20T13:43:23.156Z,16.30
2019-05-20T13:45:52.130Z,16.30
2019-05-20T13:48:20.968Z,16.20
2019-05-20T13:50:49.791Z,16.30
2019-05-20T13:53:18.704Z,16.20
2019-05-20T13:55:47.570Z,16.20
2019-05-20T13:58:16.869Z,16.10
2019-05-20T14:00:46.223Z,16.00
2019-05-20T14:03:15.415Z,16.00
2019-05-20T14:05:46.334Z,16.00
2019-05-20T14:08:15.263Z,16.00
2019-05-20T14:10:44.320Z,15.90
2019-05-20T14:13:13.127Z,16.00
2019-05-20T14:15:42.239Z,16.10
2019-05-20T14:18:11.171Z,16.20
2019-05-20T14:20:41.532Z,16.20
2019-05-20T14:23:10.387Z,16.30
2019-05-20T14:25:39.179Z,16.30
2019-05-20T14:28:08.232Z,16.30
2019-05-20T14:30:37.083Z,16.20
2019-05-20T14:33:05.974Z,16.10
2019-05-20T14:35:34.741Z,16.00
2019-05-20T14:38:03.730Z,16.00
2019-05-20T14:40:32.577Z,15.90
2019-05-20T14:43:01.514Z,15.90
2019-05-20T14:45:30.313Z,15.80
2019-05-20T14:47:59.299Z,15.80
2019-05-20T14:50:28.171Z,15.80
2019-05-20T14:52:57.080Z,15.90
2019-05-20T14:55:25.989Z,15.90
2019-05-20T14:57:55.054Z,15.90
2019-05-20T15:00:25.038Z,15.90
2019-05-20T15:02:54.766Z,16.00
2019-05-20T15:05:26.573Z,16.10
2019-05-20T15:07:55.518Z,16.10
2019-05-20T15:10:27.763Z,16.00
2019-05-20T15:12:56.535Z,15.90
2019-05-20T15:15:25.401Z,15.70
2019-05-20T15:17:55.841Z,15.60
2019-05-20T15:20:26.518Z,15.50
2019-05-20T15:23:17.740Z,15.50
2019-05-20T15:25:46.638Z,15.50
2019-05-20T15:28:15.563Z,15.50
2019-05-20T15:30:44.433Z,15.40
2019-05-20T15:33:13.282Z,15.40
2019-05-20T15:35:42.731Z,15.30
2019-05-20T15:38:12.101Z,15.30
2019-05-20T15:40:40.913Z,15.30
2019-05-20T15:43:09.753Z,15.30
2019-05-20T15:45:38.613Z,15.30
2019-05-20T15:48:07.482Z,15.30
2019-05-20T15:50:36.406Z,15.30
2019-05-20T15:53:10.758Z,15.30
2019-05-20T15:55:35.825Z,15.30
2019-05-20T15:58:05.461Z,15.30
2019-05-20T16:00:34.250Z,15.30
2019-05-20T16:03:03.033Z,15.20
2019-05-20T16:05:31.890Z,15.20
2019-05-20T16:08:00.861Z,15.10
2019-05-20T16:10:29.685Z,15.10
2019-05-20T16:12:58.759Z,15.00
2019-05-20T16:15:27.542Z,15.00
2019-05-20T16:17:56.430Z,14.90
2019-05-20T16:20:26.836Z,14.80
2019-05-20T16:22:55.634Z,14.70
2019-05-20T16:25:25.989Z,14.70
2019-05-20T16:27:55.083Z,14.70
2019-05-20T16:30:24.243Z,14.60
2019-05-20T16:32:53.115Z,14.50
2019-05-20T16:35:22.469Z,14.40
2019-05-20T16:37:53.103Z,14.40
2019-05-20T16:40:22.241Z,14.40
2019-05-20T16:42:56.347Z,14.30
2019-05-20T16:45:25.225Z,14.30
2019-05-20T16:47:54.228Z,14.20
2019-05-20T16:50:23.123Z,14.20
2019-05-20T16:52:52.720Z,14.20
2019-05-20T16:55:21.706Z,14.30
2019-05-20T16:57:50.628Z,14.30
2019-05-20T17:00:30.995Z,14.30
2019-05-20T17:02:50.546Z,14.30
2019-05-20T17:05:19.498Z,14.30
2019-05-20T17:07:52.263Z,14.30
2019-05-20T17:10:21.123Z,14.30
2019-05-20T17:12:49.901Z,14.30
2019-05-20T17:15:18.813Z,14.30
2019-05-20T17:17:48.493Z,14.30
2019-05-20T17:20:17.722Z,14.30
2019-05-20T17:22:46.597Z,14.30
2019-05-20T17:25:17.782Z,14.30
2019-05-20T17:27:47.520Z,14.30
2019-05-20T17:30:16.735Z,14.30
2019-05-20T17:32:45.613Z,14.30
2019-05-20T17:35:14.729Z,14.30
2019-05-20T17:37:43.704Z,14.30
2019-05-20T17:40:13.412Z,14.40
2019-05-20T17:42:42.420Z,14.40
2019-05-20T17:45:12.243Z,14.40
2019-05-20T17:47:41.284Z,14.40
2019-05-20T17:50:10.917Z,14.40
2019-05-20T17:52:39.717Z,14.30
2019-05-20T17:55:08.917Z,14.30
2019-05-20T17:57:37.904Z,14.30
2019-05-20T18:00:11.354Z,14.30
2019-05-20T18:02:40.332Z,14.30
2019-05-20T18:05:10.308Z,14.30
2019-05-20T18:07:39.740Z,14.40
2019-05-20T18:10:09.856Z,14.40
2019-05-20T18:12:39.968Z,14.40
2019-05-20T18:15:10.176Z,14.30
2019-05-20T18:17:39.266Z,14.30
2019-05-20T18:20:08.249Z,14.20
2019-05-20T18:22:37.112Z,14.30
2019-05-20T18:25:05.955Z,14.20
2019-05-20T18:27:34.997Z,14.10
2019-05-20T18:30:08.095Z,14.10
2019-05-20T18:32:38.655Z,14.10
2019-05-20T18:35:08.841Z,14.00
2019-05-20T18:37:37.924Z,14.00
2019-05-20T18:40:14.391Z,14.00
2019-05-20T18:42:40.270Z,13.90
2019-05-20T18:45:10.487Z,13.90
2019-05-20T18:47:39.390Z,13.90
2019-05-20T18:50:08.794Z,13.90
2019-05-20T18:52:37.585Z,13.80
2019-05-20T18:55:06.550Z,13.90
2019-05-20T18:57:35.471Z,13.80
2019-05-20T19:00:05.776Z,13.80
2019-05-20T19:02:35.034Z,13.80
2019-05-20T19:05:04.409Z,13.80
2019-05-20T19:07:35.492Z,13.70
2019-05-20T19:10:06.418Z,13.70
2019-05-20T19:12:35.511Z,13.70
2019-05-20T19:15:04.950Z,13.70
2019-05-20T19:17:34.410Z,13.70
2019-05-20T19:20:03.283Z,13.70
2019-05-20T19:22:33.108Z,13.70
2019-05-20T19:25:04.654Z,13.70
2019-05-20T19:27:36.468Z,13.70
2019-05-20T19:30:10.746Z,13.70
2019-05-20T19:32:39.612Z,13.70
2019-05-20T19:35:12.956Z,13.70
2019-05-20T19:37:41.770Z,13.60
2019-05-20T19:40:10.782Z,13.60
2019-05-20T19:42:39.711Z,13.50
2019-05-20T19:45:11.211Z,13.50
2019-05-20T19:47:40.867Z,13.50
2019-05-20T19:50:13.617Z,13.50
2019-05-20T19:52:42.779Z,13.40
2019-05-20T19:55:12.398Z,13.40
2019-05-20T19:57:42.221Z,13.40
2019-05-20T20:00:11.849Z,13.40
2019-05-20T20:02:40.641Z,13.40
2019-05-20T20:05:10.391Z,13.40
2019-05-20T20:07:39.272Z,13.30
2019-05-20T20:10:08.638Z,13.30
2019-05-20T20:12:37.451Z,13.20
2019-05-20T20:15:07.266Z,13.20
2019-05-20T20:17:36.334Z,13.10
2019-05-20T20:20:05.980Z,13.10
2019-05-20T20:22:37.374Z,13.00
2019-05-20T20:25:06.490Z,13.10
2019-05-20T20:27:35.316Z,13.00
2019-05-20T20:30:04.389Z,13.00
2019-05-20T20:32:37.797Z,13.00
2019-05-20T20:35:04.109Z,13.00
2019-05-20T20:37:32.918Z,13.10
2019-05-20T20:40:01.708Z,13.00
2019-05-20T20:42:30.623Z,13.10
2019-05-20T20:44:59.420Z,13.00
2019-05-20T20:47:40.902Z,13.00
2019-05-20T20:49:58.931Z,13.00
2019-05-20T20:52:32.421Z,13.00
2019-05-20T20:55:00.723Z,12.90
2019-05-20T20:57:29.783Z,12.90
2019-05-20T20:59:58.570Z,12.90
2019-05-20T21:02:27.355Z,12.90
2019-05-20T21:04:56.146Z,12.90
2019-05-20T21:07:25.107Z,12.90
2019-05-20T21:09:53.895Z,12.90
2019-05-20T21:12:25.010Z,12.90
2019-05-20T21:14:53.790Z,12.90
2019-05-20T21:17:22.769Z,13.00
2019-05-20T21:19:51.623Z,12.90
2019-05-20T21:22:20.585Z,13.00
2019-05-20T21:24:49.519Z,13.00
2019-05-20T21:27:18.476Z,13.00
2019-05-20T21:29:47.313Z,13.00
2019-05-20T21:32:16.123Z,13.00
2019-05-20T21:34:44.910Z,13.00
2019-05-20T21:37:13.838Z,12.90
2019-05-20T21:39:42.643Z,12.90
2019-05-20T21:42:11.450Z,12.90
2019-05-20T21:44:40.233Z,12.90
2019-05-20T21:47:09.195Z,12.90
2019-05-20T21:49:38.111Z,12.90
2019-05-20T21:52:07.032Z,12.90
2019-05-20T21:54:35.840Z,12.90
2019-05-20T21:57:05.104Z,12.90
2019-05-20T21:59:33.919Z,12.90
2019-05-20T22:02:02.695Z,12.90
2019-05-20T22:04:31.554Z,12.90
2019-05-20T22:07:00.631Z,12.90
2019-05-20T22:09:29.521Z,12.90
2019-05-20T22:11:58.327Z,13.00
2019-05-20T22:14:27.225Z,13.00
2019-05-20T22:16:56.096Z,12.90
2019-05-20T22:19:24.911Z,12.90
2019-05-20T22:22:02.664Z,12.90
2019-05-20T22:24:31.586Z,12.90
2019-05-20T22:27:00.409Z,12.90
2019-05-20T22:29:29.249Z,12.90
2019-05-20T22:31:58.030Z,13.00
2019-05-20T22:34:26.805Z,13.00
2019-05-20T22:36:55.801Z,13.00
2019-05-20T22:39:24.989Z,13.00
2019-05-20T22:41:53.762Z,13.00
2019-05-20T22:44:22.563Z,13.00
2019-05-20T22:46:51.378Z,13.00
2019-05-20T22:49:20.167Z,13.00
2019-05-20T22:51:48.942Z,13.00
2019-05-20T22:54:17.835Z,13.00
2019-05-20T22:56:46.706Z,13.00
2019-05-20T22:59:15.594Z,13.00
2019-05-20T23:02:00.799Z,13.00
2019-05-20T23:04:17.759Z,13.00
2019-05-20T23:06:46.943Z,13.00
2019-05-20T23:09:15.875Z,13.10
2019-05-20T23:11:44.665Z,13.10
2019-05-20T23:14:13.469Z,13.10
2019-05-20T23:16:42.420Z,13.00
2019-05-20T23:19:11.248Z,13.00
2019-05-20T23:21:40.412Z,13.00
2019-05-20T23:24:09.211Z,13.00
2019-05-20T23:26:38.121Z,13.00
2019-05-20T23:29:07.012Z,13.10
2019-05-20T23:31:35.793Z,13.10
2019-05-20T23:34:12.600Z,13.00
2019-05-20T23:36:35.312Z,13.00
2019-05-20T23:39:06.749Z,13.00
2019-05-20T23:41:35.621Z,12.90
2019-05-20T23:44:05.433Z,12.90
2019-05-20T23:46:34.322Z,12.90
2019-05-20T23:49:03.237Z,12.90
2019-05-20T23:51:32.041Z,12.90
2019-05-20T23:54:01.935Z,12.90
2019-05-20T23:56:32.884Z,12.90
2019-05-20T23:59:03.370Z,12.80
